createdAt,value
2023-01-27T00:00:04.982Z,95453.6
2023-01-27T00:01:07.620Z,95453.2
2023-01-27T00:02:10.226Z,95449.9
2023-01-27T00:03:12.872Z,95451.1
2023-01-27T00:04:15.428Z,95455.2
2023-01-27T00:05:17.954Z,95450.9
2023-01-27T00:06:20.212Z,95456.9
2023-01-27T00:07:22.485Z,95453.9
2023-01-27T00:08:24.730Z,95452.8
2023-01-27T00:09:26.929Z,95455.6
2023-01-27T00:10:29.426Z,95457.3
2023-01-27T00:11:31.954Z,95461.6
2023-01-27T00:12:34.181Z,95455.3
2023-01-27T00:13:36.718Z,95457.8
2023-01-27T00:14:38.954Z,95457.8
2023-01-27T00:15:41.870Z,95457.2
2023-01-27T00:16:44.529Z,95459.1
2023-01-27T00:17:46.783Z,95458.5
2023-01-27T00:18:49.346Z,95459.7
2023-01-27T00:19:51.324Z,95458.4
2023-01-27T00:20:53.616Z,95459.4
2023-01-27T00:21:56.236Z,95458
2023-01-27T00:22:58.467Z,95462.7
2023-01-27T00:24:01.216Z,95454.7
2023-01-27T00:25:03.856Z,95456.1
2023-01-27T00:26:06.132Z,95460.7
2023-01-27T00:27:08.382Z,95456.6
2023-01-27T00:28:10.982Z,95460
2023-01-27T00:29:12.914Z,95458.2
2023-01-27T00:30:15.885Z,95455.1
2023-01-27T00:31:18.868Z,95451.4
2023-01-27T00:32:21.543Z,95449.7
2023-01-27T00:33:24.029Z,95455.1
2023-01-27T00:34:26.534Z,95453.6
2023-01-27T00:35:29.027Z,95451.2
2023-01-27T00:36:31.630Z,95450.4
2023-01-27T00:37:34.186Z,95445.5
2023-01-27T00:38:36.670Z,95439.6
2023-01-27T00:39:39.180Z,95444.1
2023-01-27T00:40:41.415Z,95448.2
2023-01-27T00:41:43.911Z,95449.9
2023-01-27T00:42:46.436Z,95447.7
2023-01-27T00:43:48.994Z,95449.7
2023-01-27T00:44:51.239Z,95443.5
2023-01-27T00:45:53.752Z,95436.1
2023-01-27T00:46:56.515Z,95442.9
2023-01-27T00:47:58.768Z,95448.5
2023-01-27T00:49:01.019Z,95448.9
2023-01-27T00:50:03.297Z,95446.1
2023-01-27T00:51:05.811Z,95446.8
2023-01-27T00:52:07.801Z,95446.9
2023-01-27T00:53:10.313Z,95451.7
2023-01-27T00:54:12.570Z,95445.7
2023-01-27T00:55:14.795Z,95447.1
2023-01-27T00:56:17.299Z,95448
2023-01-27T00:57:19.781Z,95450.8
2023-01-27T00:58:22.312Z,95449
2023-01-27T00:59:24.786Z,95455.1
2023-01-27T01:00:27.317Z,95451.2
2023-01-27T01:01:29.334Z,95452.3
2023-01-27T01:02:31.990Z,95454.4
2023-01-27T01:03:34.441Z,95452.2
2023-01-27T01:04:36.681Z,95456.7
2023-01-27T01:05:39.173Z,95455.7
2023-01-27T01:06:41.400Z,95459.9
2023-01-27T01:07:43.624Z,95459.6
2023-01-27T01:08:46.224Z,95460.6
2023-01-27T01:09:48.790Z,95457.8
2023-01-27T01:10:50.791Z,95456
2023-01-27T01:11:53.005Z,95461
2023-01-27T01:12:55.527Z,95463.1
2023-01-27T01:13:58.448Z,95460.8
2023-01-27T01:15:00.696Z,95466.3
2023-01-27T01:16:03.131Z,95464.8
2023-01-27T01:17:05.167Z,95468.5
2023-01-27T01:18:07.723Z,95463.6
2023-01-27T01:19:10.263Z,95465.2
2023-01-27T01:20:14.076Z,95461.9
2023-01-27T01:21:17.099Z,95463.3
2023-01-27T01:22:19.339Z,95461.1
2023-01-27T01:23:21.836Z,95463.5
2023-01-27T01:24:24.379Z,95464.6
2023-01-27T01:25:26.666Z,95465.2
2023-01-27T01:26:29.184Z,95466.7
2023-01-27T01:27:31.697Z,95462
2023-01-27T01:28:34.215Z,95463.5
2023-01-27T01:29:36.861Z,95465.4
2023-01-27T01:30:39.319Z,95465.1
2023-01-27T01:31:42.066Z,95466.3
2023-01-27T01:32:44.440Z,95467.9
2023-01-27T01:33:47.065Z,95465.3
2023-01-27T01:34:49.301Z,95464.3
2023-01-27T01:35:51.828Z,95464
2023-01-27T01:36:54.327Z,95463.1
2023-01-27T01:37:56.565Z,95458.6
2023-01-27T01:38:58.920Z,95457.7
2023-01-27T01:40:01.452Z,95470.3
2023-01-27T01:41:03.753Z,95466.5
2023-01-27T01:42:06.244Z,95471.4
2023-01-27T01:43:08.762Z,95465
2023-01-27T01:44:10.705Z,95464.1
2023-01-27T01:45:13.201Z,95458.4
2023-01-27T01:46:16.030Z,95463.6
2023-01-27T01:47:18.695Z,95457.7
2023-01-27T01:48:20.911Z,95462.5
2023-01-27T01:49:23.498Z,95458.7
2023-01-27T01:50:26.033Z,95451.6
2023-01-27T01:51:28.540Z,95448
2023-01-27T01:52:30.761Z,95445
2023-01-27T01:53:33.278Z,95442.2
2023-01-27T01:54:35.783Z,95439.5
2023-01-27T01:55:38.329Z,95441.7
2023-01-27T01:56:40.263Z,95436.8
2023-01-27T01:57:42.784Z,95437
2023-01-27T01:58:46.128Z,95440.7
2023-01-27T01:59:48.739Z,95441
2023-01-27T02:00:51.209Z,95440.9
2023-01-27T02:01:53.769Z,95435.5
2023-01-27T02:02:56.326Z,95434.4
2023-01-27T02:03:58.399Z,95428.7
2023-01-27T02:05:01.005Z,95431.6
2023-01-27T02:06:03.462Z,95429.8
2023-01-27T02:07:05.709Z,95429.2
2023-01-27T02:08:08.208Z,95425.6
2023-01-27T02:09:10.446Z,95426
2023-01-27T02:10:14.469Z,95426
2023-01-27T02:11:17.581Z,95429.7
2023-01-27T02:12:20.080Z,95431.3
2023-01-27T02:13:22.332Z,95428.8
2023-01-27T02:14:24.849Z,95432
2023-01-27T02:15:27.184Z,95438.5
2023-01-27T02:16:29.973Z,95445.3
2023-01-27T02:17:32.252Z,95451
2023-01-27T02:18:34.184Z,95446.6
2023-01-27T02:19:36.674Z,95449.9
2023-01-27T02:20:39.259Z,95448.8
2023-01-27T02:21:41.899Z,95452.3
2023-01-27T02:22:44.433Z,95454.5
2023-01-27T02:23:46.779Z,95453.9
2023-01-27T02:24:49.307Z,95456.8
2023-01-27T02:25:51.957Z,95453.3
2023-01-27T02:26:53.915Z,95454.3
2023-01-27T02:27:56.406Z,95448.6
2023-01-27T02:28:58.963Z,95438.5
2023-01-27T02:30:01.534Z,95438.8
2023-01-27T02:31:04.461Z,95437.8
2023-01-27T02:32:06.896Z,95439.9
2023-01-27T02:33:09.109Z,95438
2023-01-27T02:34:11.604Z,95441.2
2023-01-27T02:35:15.045Z,95442.5
2023-01-27T02:36:18.419Z,95439.9
2023-01-27T02:37:21.056Z,95441.2
2023-01-27T02:38:23.600Z,95440.7
2023-01-27T02:39:25.879Z,95442.7
2023-01-27T02:40:28.161Z,95439.1
2023-01-27T02:41:30.761Z,95442.7
2023-01-27T02:42:32.996Z,95443.2
2023-01-27T02:43:35.512Z,95440.4
2023-01-27T02:44:37.746Z,95445.7
2023-01-27T02:45:40.489Z,95444.7
2023-01-27T02:46:42.730Z,95443.9
2023-01-27T02:47:45.237Z,95439.8
2023-01-27T02:48:47.780Z,95436.8
2023-01-27T02:49:50.367Z,95440
2023-01-27T02:50:52.869Z,95440
2023-01-27T02:51:55.475Z,95436.8
2023-01-27T02:52:58.114Z,95434.3
2023-01-27T02:54:00.647Z,95437.8
2023-01-27T02:55:03.397Z,95434.4
2023-01-27T02:56:05.355Z,95435.7
2023-01-27T02:57:07.645Z,95438.3
2023-01-27T02:58:10.370Z,95435.8
2023-01-27T02:59:12.626Z,95435.3
2023-01-27T03:00:15.101Z,95432.3
2023-01-27T03:01:18.007Z,95435.5
2023-01-27T03:02:20.810Z,95435
2023-01-27T03:03:23.412Z,95431.9
2023-01-27T03:04:25.911Z,95434
2023-01-27T03:05:28.154Z,95434.2
2023-01-27T03:06:30.919Z,95430.3
2023-01-27T03:07:33.303Z,95431.2
2023-01-27T03:08:35.805Z,95425.5
2023-01-27T03:09:38.340Z,95423.5
2023-01-27T03:10:40.727Z,95427.5
2023-01-27T03:11:43.248Z,95426.8
2023-01-27T03:12:45.752Z,95431.1
2023-01-27T03:13:48.485Z,95432.3
2023-01-27T03:14:50.971Z,95430.4
2023-01-27T03:15:53.349Z,95428
2023-01-27T03:16:55.949Z,95429.6
2023-01-27T03:17:58.197Z,95425.6
2023-01-27T03:19:00.141Z,95430.2
2023-01-27T03:20:02.708Z,95436.3
2023-01-27T03:21:04.845Z,95435.1
2023-01-27T03:22:07.345Z,95435.3
2023-01-27T03:23:09.733Z,95438.3
2023-01-27T03:24:12.156Z,95436.2
2023-01-27T03:25:16.508Z,95435.8
2023-01-27T03:26:18.996Z,95435.2
2023-01-27T03:27:21.006Z,95434.5
2023-01-27T03:28:23.339Z,95435.8
2023-01-27T03:29:25.627Z,95433.4
2023-01-27T03:30:28.123Z,95434.5
2023-01-27T03:31:30.937Z,95430.6
2023-01-27T03:32:33.623Z,95433.4
2023-01-27T03:33:35.867Z,95433.2
2023-01-27T03:34:38.382Z,95430.9
2023-01-27T03:35:41.853Z,95430.7
2023-01-27T03:36:44.755Z,95429.4
2023-01-27T03:37:47.242Z,95431.9
2023-01-27T03:38:50.298Z,95429.5
2023-01-27T03:39:53.305Z,95427.4
2023-01-27T03:40:55.834Z,95429
2023-01-27T03:41:58.370Z,95427
2023-01-27T03:43:00.630Z,95428.8
2023-01-27T03:44:03.140Z,95426
2023-01-27T03:45:05.717Z,95429.8
2023-01-27T03:46:08.324Z,95429.3
2023-01-27T03:47:10.605Z,95427.8
2023-01-27T03:48:13.099Z,95430.6
2023-01-27T03:49:15.618Z,95430.4
2023-01-27T03:50:17.886Z,95429.6
2023-01-27T03:51:20.418Z,95424.5
2023-01-27T03:52:22.926Z,95427
2023-01-27T03:53:25.408Z,95423.2
2023-01-27T03:54:27.720Z,95424
2023-01-27T03:55:30.220Z,95429.6
2023-01-27T03:56:32.707Z,95431.4
2023-01-27T03:57:34.824Z,95429.4
2023-01-27T03:58:38.078Z,95428.6
2023-01-27T03:59:40.477Z,95424.2
2023-01-27T04:00:42.852Z,95419.8
2023-01-27T04:01:46.054Z,95421.6
2023-01-27T04:02:49.118Z,95423.3
2023-01-27T04:03:51.522Z,95431.4
2023-01-27T04:04:53.510Z,95428.1
2023-01-27T04:05:56.082Z,95429.8
2023-01-27T04:06:58.682Z,95429.8
2023-01-27T04:08:00.920Z,95428.8
2023-01-27T04:09:03.564Z,95430.6
2023-01-27T04:10:06.267Z,95434.3
2023-01-27T04:11:08.794Z,95433.2
2023-01-27T04:12:11.025Z,95438.6
2023-01-27T04:13:13.528Z,95437.9
2023-01-27T04:14:16.021Z,95436
2023-01-27T04:15:18.255Z,95434.4
2023-01-27T04:16:20.815Z,95435.8
2023-01-27T04:17:23.326Z,95430.8
2023-01-27T04:18:25.833Z,95433.5
2023-01-27T04:19:28.395Z,95429.6
2023-01-27T04:20:30.906Z,95429.8
2023-01-27T04:21:32.862Z,95427.7
2023-01-27T04:22:35.117Z,95430.4
2023-01-27T04:23:37.326Z,95428.6
2023-01-27T04:24:39.841Z,95425.5
2023-01-27T04:25:42.444Z,95421.2
2023-01-27T04:26:44.728Z,95427.5
2023-01-27T04:27:47.232Z,95426.6
2023-01-27T04:28:49.759Z,95426.1
2023-01-27T04:29:52.302Z,95426.3
2023-01-27T04:30:54.713Z,95424.7
2023-01-27T04:31:57.501Z,95426.3
2023-01-27T04:33:00.655Z,95425.1
2023-01-27T04:34:03.715Z,95426.9
2023-01-27T04:35:06.230Z,95425.2
2023-01-27T04:36:08.654Z,95425.4
2023-01-27T04:37:11.506Z,95426.8
2023-01-27T04:38:15.156Z,95424.3
2023-01-27T04:39:17.449Z,95425.1
2023-01-27T04:40:19.935Z,95426.9
2023-01-27T04:41:22.512Z,95427.5
2023-01-27T04:42:25.017Z,95429.5
2023-01-27T04:43:27.571Z,95428.3
2023-01-27T04:44:29.882Z,95430.4
2023-01-27T04:45:32.578Z,95428.1
2023-01-27T04:46:35.090Z,95430.8
2023-01-27T04:47:37.330Z,95430.9
2023-01-27T04:48:39.541Z,95427.2
2023-01-27T04:49:41.880Z,95431.4
2023-01-27T04:50:44.379Z,95427.7
2023-01-27T04:51:48.655Z,95430.1
2023-01-27T04:52:51.163Z,95428.1
2023-01-27T04:53:53.604Z,95425.9
2023-01-27T04:54:55.842Z,95428.3
2023-01-27T04:55:58.072Z,95433.4
2023-01-27T04:57:00.714Z,95433.9
2023-01-27T04:58:03.519Z,95434
2023-01-27T04:59:06.214Z,95434
2023-01-27T05:00:08.168Z,95431.7
2023-01-27T05:01:10.413Z,95428.3
2023-01-27T05:02:13.023Z,95428.3
2023-01-27T05:03:16.059Z,95433.6
2023-01-27T05:04:18.653Z,95429.5
2023-01-27T05:05:21.158Z,95438.6
2023-01-27T05:06:23.699Z,95437.9
2023-01-27T05:07:26.216Z,95437.8
2023-01-27T05:08:28.726Z,95436.8
2023-01-27T05:09:30.962Z,95437
2023-01-27T05:10:33.161Z,95431.3
2023-01-27T05:11:35.677Z,95435.9
2023-01-27T05:12:38.247Z,95437.1
2023-01-27T05:13:40.794Z,95435.5
2023-01-27T05:14:43.048Z,95429.3
2023-01-27T05:15:46.168Z,95432.1
2023-01-27T05:16:49.164Z,95433
2023-01-27T05:17:51.542Z,95436.1
2023-01-27T05:18:53.820Z,95435.5
2023-01-27T05:19:56.365Z,95437.6
2023-01-27T05:20:59.027Z,95434.9
2023-01-27T05:22:00.972Z,95434.9
2023-01-27T05:23:03.261Z,95433.7
2023-01-27T05:24:06.068Z,95430.9
2023-01-27T05:25:09.021Z,95435.8
2023-01-27T05:26:11.959Z,95436.6
2023-01-27T05:27:14.174Z,95437
2023-01-27T05:28:16.787Z,95442.2
2023-01-27T05:29:19.284Z,95443
2023-01-27T05:30:21.770Z,95440
2023-01-27T05:31:24.674Z,95441.7
2023-01-27T05:32:27.142Z,95446.9
2023-01-27T05:33:29.421Z,95448.4
2023-01-27T05:34:31.678Z,95448.6
2023-01-27T05:35:34.221Z,95445.3
2023-01-27T05:36:36.222Z,95447
2023-01-27T05:37:38.453Z,95453.7
2023-01-27T05:38:40.686Z,95454.2
2023-01-27T05:39:43.175Z,95453.9
2023-01-27T05:40:45.696Z,95457.9
2023-01-27T05:41:48.202Z,95459.9
2023-01-27T05:42:50.431Z,95459.5
2023-01-27T05:43:52.702Z,95459.8
2023-01-27T05:44:54.945Z,95461.9
2023-01-27T05:45:57.451Z,95463.8
2023-01-27T05:46:59.962Z,95465.3
2023-01-27T05:48:02.609Z,95463.7
2023-01-27T05:49:05.296Z,95460.6
2023-01-27T05:50:07.296Z,95465.7
2023-01-27T05:51:09.507Z,95467.5
2023-01-27T05:52:13.300Z,95467.8
2023-01-27T05:53:15.550Z,95468
2023-01-27T05:54:18.141Z,95467.2
2023-01-27T05:55:20.641Z,95466.9
2023-01-27T05:56:23.199Z,95462.5
2023-01-27T05:57:25.854Z,95467.1
2023-01-27T05:58:27.820Z,95469.8
2023-01-27T05:59:29.825Z,95465
2023-01-27T06:00:32.366Z,95472.2
2023-01-27T06:01:34.928Z,95475.2
2023-01-27T06:02:37.546Z,95469.3
2023-01-27T06:03:39.361Z,95470.7
2023-01-27T06:04:41.855Z,95470.4
2023-01-27T06:05:44.088Z,95475.9
2023-01-27T06:06:46.574Z,95475.4
2023-01-27T06:07:48.579Z,95473.1
2023-01-27T06:08:50.946Z,95477.4
2023-01-27T06:09:53.451Z,95477.5
2023-01-27T06:10:56.035Z,95474
2023-01-27T06:11:58.271Z,95476
2023-01-27T06:13:00.800Z,95480.5
2023-01-27T06:14:02.876Z,95480.2
2023-01-27T06:15:05.449Z,95491.6
2023-01-27T06:16:07.969Z,95485.5
2023-01-27T06:17:10.324Z,95486.9
2023-01-27T06:18:12.700Z,95490.8
2023-01-27T06:19:15.296Z,95491.3
2023-01-27T06:20:17.797Z,95488.3
2023-01-27T06:21:20.034Z,95494.4
2023-01-27T06:22:22.750Z,95490.6
2023-01-27T06:23:25.252Z,95494.2
2023-01-27T06:24:27.885Z,95490.9
2023-01-27T06:25:30.523Z,95487.8
2023-01-27T06:26:33.047Z,95489.6
2023-01-27T06:27:35.016Z,95490.3
2023-01-27T06:28:37.403Z,95490
2023-01-27T06:29:39.734Z,95490.7
2023-01-27T06:30:42.278Z,95493.3
2023-01-27T06:31:45.383Z,95490.7
2023-01-27T06:32:47.969Z,95488.8
2023-01-27T06:33:50.480Z,95489
2023-01-27T06:34:52.452Z,95492.6
2023-01-27T06:35:55.015Z,95495.7
2023-01-27T06:36:57.755Z,95500.3
2023-01-27T06:38:00.271Z,95498.8
2023-01-27T06:39:02.784Z,95499.4
2023-01-27T06:40:05.318Z,95497.1
2023-01-27T06:41:07.358Z,95501.5
2023-01-27T06:42:09.317Z,95495.2
2023-01-27T06:43:11.540Z,95501.3
2023-01-27T06:44:14.055Z,95500.4
2023-01-27T06:45:16.550Z,95500.9
2023-01-27T06:46:19.458Z,95501.1
2023-01-27T06:47:21.503Z,95502.4
2023-01-27T06:48:23.447Z,95507.7
2023-01-27T06:49:26.167Z,95503.5
2023-01-27T06:50:28.682Z,95510.7
2023-01-27T06:51:30.911Z,95512.2
2023-01-27T06:52:33.001Z,95513
2023-01-27T06:53:35.603Z,95519.5
2023-01-27T06:54:38.330Z,95523.8
2023-01-27T06:55:40.824Z,95528.2
2023-01-27T06:56:43.565Z,95531.2
2023-01-27T06:57:46.058Z,95531.1
2023-01-27T06:58:48.603Z,95533.2
2023-01-27T06:59:51.130Z,95536.7
2023-01-27T07:00:53.693Z,95533.8
2023-01-27T07:01:55.725Z,95528.8
2023-01-27T07:02:58.767Z,95534.8
2023-01-27T07:04:01.050Z,95528
2023-01-27T07:05:03.383Z,95534
2023-01-27T07:06:05.337Z,95529.9
2023-01-27T07:07:07.958Z,95530.3
2023-01-27T07:08:10.312Z,95531.7
2023-01-27T07:09:12.542Z,95530.8
2023-01-27T07:10:16.860Z,95528.9
2023-01-27T07:11:19.144Z,95526.2
2023-01-27T07:12:21.643Z,95527.7
2023-01-27T07:13:23.609Z,95525.2
2023-01-27T07:14:26.214Z,95530.9
2023-01-27T07:15:28.419Z,95532.5
2023-01-27T07:16:30.369Z,95525.9
2023-01-27T07:17:33.380Z,95531.6
2023-01-27T07:18:36.323Z,95529.1
2023-01-27T07:19:38.535Z,95531.7
2023-01-27T07:20:41.563Z,95530.5
2023-01-27T07:21:44.183Z,95535.4
2023-01-27T07:22:46.322Z,95532.7
2023-01-27T07:23:49.129Z,95532.3
2023-01-27T07:24:52.360Z,95535.5
2023-01-27T07:25:54.591Z,95531.5
2023-01-27T07:26:56.865Z,95532.7
2023-01-27T07:27:59.394Z,95535.6
2023-01-27T07:29:01.959Z,95531.4
2023-01-27T07:30:04.508Z,95530.6
2023-01-27T07:31:07.652Z,95528.9
2023-01-27T07:32:10.519Z,95526.2
2023-01-27T07:33:13.141Z,95529.9
2023-01-27T07:34:15.603Z,95528.4
2023-01-27T07:35:18.042Z,95526.2
2023-01-27T07:36:20.361Z,95523.4
2023-01-27T07:37:23.135Z,95523
2023-01-27T07:38:25.361Z,95521.3
2023-01-27T07:39:27.910Z,95525
2023-01-27T07:40:30.154Z,95522.8
2023-01-27T07:41:32.684Z,95522.6
2023-01-27T07:42:35.211Z,95519.1
2023-01-27T07:43:37.761Z,95521.5
2023-01-27T07:44:40.009Z,95518
2023-01-27T07:45:42.814Z,95519.9
2023-01-27T07:46:45.436Z,95521
2023-01-27T07:47:47.956Z,95521.5
2023-01-27T07:48:49.969Z,95518.9
2023-01-27T07:49:52.524Z,95528
2023-01-27T07:50:54.199Z,95521.8
2023-01-27T07:51:56.477Z,95526.4
2023-01-27T07:52:59.004Z,95528.1
2023-01-27T07:54:03.292Z,95528.5
2023-01-27T07:55:05.823Z,95526.1
2023-01-27T07:56:07.827Z,95526.3
2023-01-27T07:57:09.560Z,95525.1
2023-01-27T07:58:11.796Z,95522.3
2023-01-27T07:59:13.766Z,95520.4
2023-01-27T08:00:16.816Z,95520.5
2023-01-27T08:01:19.018Z,95522.7
2023-01-27T08:02:21.331Z,95522
2023-01-27T08:03:24.195Z,95521.7
2023-01-27T08:04:26.690Z,95520.9
2023-01-27T08:05:28.966Z,95523
2023-01-27T08:06:31.182Z,95518.6
2023-01-27T08:07:33.437Z,95521.7
2023-01-27T08:08:38.686Z,95521.9
2023-01-27T08:09:40.922Z,95515.7
2023-01-27T08:10:43.177Z,95521.8
2023-01-27T08:11:45.722Z,95517.9
2023-01-27T08:12:48.051Z,95524.9
2023-01-27T08:13:50.768Z,95520.2
2023-01-27T08:14:53.013Z,95523.2
2023-01-27T08:15:55.237Z,95524.8
2023-01-27T08:16:57.217Z,95521.3
2023-01-27T08:17:59.549Z,95524.5
2023-01-27T08:19:01.806Z,95528.1
2023-01-27T08:20:04.390Z,95528.3
2023-01-27T08:21:06.940Z,95526.8
2023-01-27T08:22:09.471Z,95527
2023-01-27T08:23:11.979Z,95525.8
2023-01-27T08:24:14.764Z,95531.2
2023-01-27T08:25:17.174Z,95527
2023-01-27T08:26:19.453Z,95527
2023-01-27T08:27:21.952Z,95526.1
2023-01-27T08:28:24.467Z,95531.8
2023-01-27T08:29:26.730Z,95532.6
2023-01-27T08:30:29.701Z,95531.9
2023-01-27T08:31:32.252Z,95531.5
2023-01-27T08:32:34.639Z,95537.1
2023-01-27T08:33:36.926Z,95540.5
2023-01-27T08:34:39.484Z,95543.1
2023-01-27T08:35:41.746Z,95540.5
2023-01-27T08:36:44.274Z,95537.6
2023-01-27T08:38:51.771Z,95534.6
2023-01-27T08:39:54.302Z,95539.1
2023-01-27T08:40:56.543Z,95539.9
2023-01-27T08:41:59.094Z,95541.6
2023-01-27T08:43:02.829Z,95536.6
2023-01-27T08:44:07.820Z,95537
2023-01-27T08:45:09.798Z,95542.1
2023-01-27T08:46:12.762Z,95546.7
2023-01-27T08:47:14.960Z,95546.8
2023-01-27T08:48:16.902Z,95541.8
2023-01-27T08:49:19.122Z,95547.6
2023-01-27T08:50:21.069Z,95550
2023-01-27T08:51:23.520Z,95548.7
2023-01-27T08:52:25.809Z,95548.6
2023-01-27T08:53:29.024Z,95551.3
2023-01-27T08:54:31.821Z,95554
2023-01-27T08:55:34.372Z,95561.6
2023-01-27T08:56:36.879Z,95568.2
2023-01-27T08:57:39.459Z,95568
2023-01-27T08:58:41.995Z,95569.9
2023-01-27T08:59:44.512Z,95564
2023-01-27T09:00:47.011Z,95565.7
2023-01-27T09:01:49.224Z,95560.2
2023-01-27T09:02:51.732Z,95561.2
2023-01-27T09:03:54.266Z,95565.8
2023-01-27T09:04:57.076Z,95563.5
2023-01-27T09:05:59.595Z,95563.8
2023-01-27T09:07:01.956Z,95561.3
2023-01-27T09:08:04.496Z,95566.6
2023-01-27T09:09:08.833Z,95564.8
2023-01-27T09:11:18.268Z,95571.6
2023-01-27T09:12:20.787Z,95560.6
2023-01-27T09:13:23.477Z,95565.4
2023-01-27T09:14:25.997Z,95564.2
2023-01-27T09:15:28.540Z,95568.4
2023-01-27T09:16:31.474Z,95569
2023-01-27T09:17:34.078Z,95567.5
2023-01-27T09:18:36.633Z,95570.9
2023-01-27T09:19:39.184Z,95568.4
2023-01-27T09:20:41.194Z,95565.7
2023-01-27T09:21:43.762Z,95562.3
2023-01-27T09:22:46.364Z,95563.1
2023-01-27T09:23:49.016Z,95564.3
2023-01-27T09:24:51.264Z,95565.9
2023-01-27T09:25:53.515Z,95568.8
2023-01-27T09:26:56.298Z,95571.7
2023-01-27T09:27:58.577Z,95574.1
2023-01-27T09:29:01.120Z,95576.5
2023-01-27T09:30:03.352Z,95578.2
2023-01-27T09:31:06.082Z,95574.7
2023-01-27T09:32:09.433Z,95578.1
2023-01-27T09:33:12.074Z,95576.1
2023-01-27T09:34:15.547Z,95577.1
2023-01-27T09:35:18.364Z,95578.2
2023-01-27T09:36:20.665Z,95584.6
2023-01-27T09:37:22.348Z,95581.9
2023-01-27T09:38:24.995Z,95581.7
2023-01-27T09:39:27.586Z,95582.8
2023-01-27T09:40:29.905Z,95583.1
2023-01-27T09:41:31.948Z,95587.4
2023-01-27T09:42:34.480Z,95585.5
2023-01-27T09:43:36.715Z,95584.9
2023-01-27T09:44:39.302Z,95584.8
2023-01-27T09:45:41.824Z,95581.4
2023-01-27T09:46:44.084Z,95581.2
2023-01-27T09:47:46.616Z,95582
2023-01-27T09:48:48.861Z,95584.5
2023-01-27T09:49:51.400Z,95581.5
2023-01-27T09:50:53.488Z,95579.3
2023-01-27T09:51:55.151Z,95584.9
2023-01-27T09:52:57.392Z,95581.9
2023-01-27T09:53:59.989Z,95581.5
2023-01-27T09:55:02.270Z,95586.3
2023-01-27T09:56:04.508Z,95579.4
2023-01-27T09:57:07.112Z,95580.5
2023-01-27T09:58:09.626Z,95576.8
2023-01-27T09:59:11.852Z,95576.1
2023-01-27T10:00:15.682Z,95580.7
2023-01-27T10:01:19.185Z,95577.8
2023-01-27T10:02:21.493Z,95576.3
2023-01-27T10:03:24.022Z,95573.5
2023-01-27T10:04:26.515Z,95574.1
2023-01-27T10:05:28.858Z,95576.1
2023-01-27T10:06:34.712Z,95573
2023-01-27T10:07:37.470Z,95569.3
2023-01-27T10:08:40.029Z,95569.1
2023-01-27T10:09:42.596Z,95569.9
2023-01-27T10:10:44.866Z,95571.7
2023-01-27T10:11:47.142Z,95572.7
2023-01-27T10:12:49.389Z,95576.7
2023-01-27T10:13:51.629Z,95580.6
2023-01-27T10:14:54.160Z,95579.8
2023-01-27T10:15:56.859Z,95581.5
2023-01-27T10:16:59.472Z,95581.5
2023-01-27T10:18:02.019Z,95582.5
2023-01-27T10:19:04.272Z,95583.3
2023-01-27T10:20:06.577Z,95582.1
2023-01-27T10:21:09.085Z,95581.3
2023-01-27T10:22:11.623Z,95580.9
2023-01-27T10:23:13.857Z,95578.6
2023-01-27T10:24:16.675Z,95581.9
2023-01-27T10:25:19.399Z,95583.4
2023-01-27T10:26:21.971Z,95587.3
2023-01-27T10:27:23.931Z,95585.5
2023-01-27T10:28:26.186Z,95588.3
2023-01-27T10:29:28.423Z,95580.6
2023-01-27T10:30:30.684Z,95578.3
2023-01-27T10:31:33.149Z,95580.3
2023-01-27T10:32:35.459Z,95581.6
2023-01-27T10:33:37.695Z,95579.8
2023-01-27T10:34:40.225Z,95586.1
2023-01-27T10:35:42.176Z,95586.8
2023-01-27T10:36:44.709Z,95587.8
2023-01-27T10:37:46.950Z,95584.5
2023-01-27T10:38:49.664Z,95585
2023-01-27T10:39:52.170Z,95590.3
2023-01-27T10:40:54.456Z,95584
2023-01-27T10:41:56.991Z,95591.3
2023-01-27T10:42:59.243Z,95592.6
2023-01-27T10:44:01.778Z,95591.4
2023-01-27T10:45:04.307Z,95592.8
2023-01-27T10:46:07.111Z,95590.3
2023-01-27T10:47:09.748Z,95590.6
2023-01-27T10:48:12.265Z,95592.5
2023-01-27T10:49:14.762Z,95598.4
2023-01-27T10:50:17.514Z,95597.8
2023-01-27T10:51:19.739Z,95598.9
2023-01-27T10:52:22.272Z,95599.9
2023-01-27T10:53:24.792Z,95595.8
2023-01-27T10:54:27.119Z,95594
2023-01-27T10:55:29.676Z,95598.6
2023-01-27T10:56:31.673Z,95595.9
2023-01-27T10:57:34.206Z,95591.7
2023-01-27T10:58:36.705Z,95593
2023-01-27T10:59:38.953Z,95587.2
2023-01-27T11:01:46.443Z,95596.3
2023-01-27T11:02:48.868Z,95596.8
2023-01-27T11:03:51.686Z,95596.3
2023-01-27T11:04:54.012Z,95598.9
2023-01-27T11:05:56.504Z,95597.6
2023-01-27T11:06:59.027Z,95592.8
2023-01-27T11:08:01.619Z,95595
2023-01-27T11:09:03.856Z,95589.4
2023-01-27T11:10:06.174Z,95589.9
2023-01-27T11:11:08.689Z,95588.4
2023-01-27T11:12:11.031Z,95589.4
2023-01-27T11:13:13.555Z,95585.9
2023-01-27T11:14:16.101Z,95586.5
2023-01-27T11:15:18.065Z,95586.4
2023-01-27T11:16:20.579Z,95590.1
2023-01-27T11:17:22.888Z,95587.3
2023-01-27T11:18:25.175Z,95589.2
2023-01-27T11:19:27.694Z,95588.7
2023-01-27T11:20:29.948Z,95588.6
2023-01-27T11:21:32.467Z,95583.6
2023-01-27T11:22:34.734Z,95588.4
2023-01-27T11:23:37.247Z,95588.7
2023-01-27T11:24:39.787Z,95586
2023-01-27T11:25:42.036Z,95584.6
2023-01-27T11:26:44.542Z,95585.3
2023-01-27T11:27:47.121Z,95575.9
2023-01-27T11:28:49.669Z,95574.6
2023-01-27T11:29:52.251Z,95577.1
2023-01-27T11:30:54.969Z,95571.4
2023-01-27T11:31:57.495Z,95575.5
2023-01-27T11:33:00.124Z,95574.1
2023-01-27T11:34:02.495Z,95581.6
2023-01-27T11:35:04.746Z,95583.9
2023-01-27T11:36:06.989Z,95582.9
2023-01-27T11:37:09.507Z,95582.2
2023-01-27T11:39:17.038Z,95577.7
2023-01-27T11:40:19.607Z,95577.1
2023-01-27T11:41:21.575Z,95582.2
2023-01-27T11:42:23.566Z,95580.6
2023-01-27T11:43:25.868Z,95582.7
2023-01-27T11:44:28.121Z,95577.6
2023-01-27T11:45:30.578Z,95575.3
2023-01-27T11:46:32.576Z,95578.6
2023-01-27T11:47:35.106Z,95578.5
2023-01-27T11:48:37.118Z,95580.7
2023-01-27T11:49:39.798Z,95575.9
2023-01-27T11:50:42.316Z,95574.6
2023-01-27T11:51:44.819Z,95573.8
2023-01-27T11:52:47.079Z,95571.3
2023-01-27T11:53:49.587Z,95572.5
2023-01-27T11:54:51.836Z,95573
2023-01-27T11:55:54.070Z,95572.6
2023-01-27T11:56:56.028Z,95573.8
2023-01-27T11:57:58.269Z,95576
2023-01-27T11:59:00.915Z,95574.8
2023-01-27T12:00:03.027Z,95575.3
2023-01-27T12:01:05.252Z,95574.4
2023-01-27T12:02:07.593Z,95572.5
2023-01-27T12:03:09.552Z,95570
2023-01-27T12:04:12.321Z,95571.1
2023-01-27T12:05:14.917Z,95567.2
2023-01-27T12:06:16.897Z,95564.8
2023-01-27T12:07:19.152Z,95573.2
2023-01-27T12:08:21.392Z,95569
2023-01-27T12:09:23.343Z,95569.7
2023-01-27T12:10:25.968Z,95566.9
2023-01-27T12:11:28.206Z,95570.1
2023-01-27T12:12:30.409Z,95571.7
2023-01-27T12:13:32.920Z,95568.3
2023-01-27T12:14:35.523Z,95566.5
2023-01-27T12:15:38.149Z,95566.2
2023-01-27T12:16:40.485Z,95566.9
2023-01-27T12:17:43.034Z,95567
2023-01-27T12:18:45.293Z,95563.5
2023-01-27T12:19:47.818Z,95566.6
2023-01-27T12:20:50.378Z,95564.3
2023-01-27T12:21:52.911Z,95563.4
2023-01-27T12:22:55.490Z,95563.3
2023-01-27T12:23:58.336Z,95563.6
2023-01-27T12:25:00.747Z,95562.4
2023-01-27T12:26:03.332Z,95561.8
2023-01-27T12:27:05.874Z,95563.3
2023-01-27T12:28:07.819Z,95558.6
2023-01-27T12:29:10.356Z,95562.4
2023-01-27T12:30:14.624Z,95561.4
2023-01-27T12:31:18.221Z,95560.2
2023-01-27T12:32:20.999Z,95558.6
2023-01-27T12:33:23.518Z,95556.1
2023-01-27T12:34:26.055Z,95555.1
2023-01-27T12:35:28.332Z,95554.9
2023-01-27T12:36:31.922Z,95558.6
2023-01-27T12:37:34.148Z,95554.1
2023-01-27T12:38:36.449Z,95559.1
2023-01-27T12:39:38.948Z,95558.1
2023-01-27T12:40:40.927Z,95556.1
2023-01-27T12:41:43.412Z,95558.5
2023-01-27T12:42:45.101Z,95559.4
2023-01-27T12:43:47.323Z,95558.2
2023-01-27T12:44:49.826Z,95562.3